Terminal Aerodrome Forecast
Issued by NWS

Home | Current Version | Previous Version | Text Only | Print | Product List | Glossary On
Versions: 1 2 3 4 5 6 7 8 9 10 11 12 13 14 15 16 17 18
000
FTUS41 KGYX 302011 AAA
TAFAUG
TAF AMD
KAUG 302011Z 3020/0118 02009KT P6SM OVC035
     FM010000 06003KT 6SM BR OVC015
     FM010200 03004KT 2SM BR OVC005
     FM011500 03012KT P6SM OVC025=

USA.gov is the U.S. government's official web portal to all federal, state and local government web resources and services.